INFORMACIÓN METAR y TAF
METAR FOR ENGM
ADDS - METARS form results

(0138 UTC 15 August 2020)
Data provider http://aviationweather.gov/metar/data/
 
METAR text: ENGM 150120Z VRB03KT CAVOK 15/14 Q1014
Conditions at: ENGM (OSLO/GARDERMOEN , NO) observed 0120 UTC 15 August 2020
Temperature: 15.0°C (59°F)
Dewpoint: 14.0°C (57°F) [RH = 94%]
Pressure (altimeter): 29.94 inches Hg (1014.0 mb)
Winds: variable direction winds at 3 MPH (3 knots; 1.5 m/s)
Visibility: 6 or more miles (10+ km)
Ceiling: ceiling and visibility are OK
Clouds: unknown
Weather: no significant weather observed at this time

METAR text: ENGM 150050Z VRB02KT CAVOK 16/14 Q1014
Conditions at: ENGM (OSLO/GARDERMOEN , NO) observed 0050 UTC 15 August 2020
Temperature: 16.0°C (61°F)
Dewpoint: 14.0°C (57°F) [RH = 88%]
Pressure (altimeter): 29.94 inches Hg (1014.0 mb)
Winds: variable direction winds at 2 MPH (2 knots; 1.0 m/s)
Visibility: 6 or more miles (10+ km)
Ceiling: ceiling and visibility are OK
Clouds: unknown
Weather: no significant weather observed at this time

Forecast for: ENGM (OSLO/GARDERMOEN , NO)
Text: TAF ENGM 1500/1524 18008KT CAVOK
Forecast period: 0000 UTC 15 August 2020 to 0000 UTC 16 August 2020
Forecast type: FROM: standard forecast or significant change
Winds: from the S (180 degrees) at 9 MPH (8 knots; 4.1 m/s)
Visibility: 6 or more miles (10+ km)
Ceiling: unknown
Clouds: missing
Weather: NSW  (no significant weather)
Text: PROB40 1500/1508 0200 FG VV001
Forecast period: 0000 to 0800 UTC 15 August 2020
Forecast type: PROBABLE: 40 percent likelihood of the following during this time
Visibility: 0.12 miles (0.19 km)
Ceiling: indefinite ceiling with vertical visibility of 100 feet AGL
Clouds: obscured sky
Weather: FG  (fog)

MAPA DE AEROPUERTO

INFORMACIÓN DE PISTA
Pista 01L Longitud 11811 ft Ancho 148 ft
Elevación 656 ft Umbral desplazado 0 ft Rumbo de pista 16
Pista 19R Longitud 11811 ft Ancho 148 ft
Elevación 675 ft Umbral desplazado 0 ft Rumbo de pista 196
Pista 01R Longitud 9678 ft Ancho 148 ft
Elevación 670 ft Umbral desplazado 0 ft Rumbo de pista 16
Pista 19L Longitud 9678 ft Ancho 148 ft
Elevación 681 ft Umbral desplazado 0 ft Rumbo de pista 196

FRECUANCIAS DEL AEROPUERTO
Tipo APP Nombre APP Frecuencia 119.975 MHZ
Tipo ATIS Nombre ATIS Frecuencia 126.125 MHZ
Tipo CLD Nombre CLNC DEL Frecuencia 121.6 MHZ
Tipo DIR Nombre DIRECTOR Frecuencia 131.35 MHZ
Tipo GND Nombre GND Frecuencia 121.925 MHZ
Tipo MISC Nombre DE ICING Frecuencia 131.975 MHZ
Tipo OPS Nombre WINGOPS Frecuencia 29.38 MHZ
Tipo PMSV Nombre PMSV METRO Frecuencia 134.175 MHZ
Tipo TWR Nombre TWR Frecuencia 118.3 MHZ

RADIO AYUDAS DEL AEROPUERTO
Tipo NDB Nombre Bergerud Frecuencia 316 KHZ
Tipo VOR-DME Nombre Gardermoen Frecuencia 115950 KHZ
Tipo NDB Nombre Oppaker Frecuencia 334 KHZ
Tipo NDB Nombre Solberg Frecuencia 414 KHZ
Tipo NDB Nombre Soknen Frecuencia 387 KHZ